< < Back
Terminal Aerodrome Forecast


Current Version              Previous Versions:   1  2  3  4  5  6  7  8  9  

Terminal Aerodrome Forecast

037
FTUS42 KGSP 301700
TAFAVL
TAF
KAVL 301720Z 3018/0118 35008KT P6SM FEW028
     FM010900 31003KT 5SM BR FEW028
     FM011100 31003KT 1 1/2SM BR FEW028
     FM011300 22003KT P6SM SCT028=

Latest METAR

344
SAUS70 KWBC 010400 RRX
MTRAVL
METAR KAVL 010354Z AUTO 00000KT 10SM R34/6000VP6000FT CLR 14/13 A3002
RMK AO2 SLP145 T01440128


USA.gov is the U.S. government's official web portal to all federal, state and local government web resources and services.